Ceuta, Spain
Current Conditions -  °F | °C
As of 10:50 AM on Monday 22 Dec 2014 (Local Time) from LXGB Reporting Station
Broken Clouds Broken Clouds  
Wind Chill: 61°   Ceiling: 3400
Heat Index: 61°   Visibility: 6mi
Dew Point: 52°   Wind: 29mph
Humidity: 72%   Direction: 100°E
Pressure: 30.42"   Gusts: NA
Location:  35.89°N, 5.32°W
Report Text: LXGB 220950Z AUTO 10025KT 9999 // FEW023/// BKN034/// 16/11 Q1030
Loading
Personal Weather Stations






























Interactive Weather Map New forecast layout! Learn more

10-Day Weather Forecast

Advertisements
Track Severe Weather on mobile